createdAt,value
2023-02-19T00:02:23.669Z,1.83
2023-02-19T00:05:25.520Z,1.97
2023-02-19T00:08:29.009Z,1.85
2023-02-19T00:11:33.563Z,1.85
2023-02-19T00:14:37.924Z,1.90
2023-02-19T00:17:39.809Z,2.33
2023-02-19T00:20:41.805Z,1.93
2023-02-19T00:23:44.042Z,1.70
2023-02-19T00:26:46.314Z,2.15
2023-02-19T00:29:48.251Z,2.22
2023-02-19T00:32:51.405Z,1.58
2023-02-19T00:35:53.306Z,2.00
2023-02-19T00:38:55.353Z,4.03
2023-02-19T00:41:57.286Z,3.28
2023-02-19T00:44:59.237Z,2.63
2023-02-19T00:48:01.142Z,2.72
2023-02-19T00:51:03.492Z,2.07
2023-02-19T00:54:06.372Z,2.00
2023-02-19T00:57:08.334Z,1.77
2023-02-19T01:00:11.170Z,1.90
2023-02-19T01:03:13.635Z,1.65
2023-02-19T01:06:19.577Z,1.40
2023-02-19T01:09:21.632Z,1.52
2023-02-19T01:12:25.742Z,1.08
2023-02-19T01:15:27.648Z,2.22
2023-02-19T01:18:30.372Z,8.20
2023-02-19T01:21:32.519Z,6.37
2023-02-19T01:24:34.500Z,4.38
2023-02-19T01:27:36.365Z,4.47
2023-02-19T01:30:39.475Z,2.67
2023-02-19T01:33:45.921Z,4.75
2023-02-19T01:36:47.840Z,4.50
2023-02-19T01:39:49.897Z,3.92
2023-02-19T01:42:51.826Z,2.20
2023-02-19T01:45:54.291Z,1.65
2023-02-19T01:49:04.575Z,1.60
2023-02-19T01:52:18.521Z,1.00
2023-02-19T01:55:21.146Z,2.65
2023-02-19T01:58:26.427Z,3.70
2023-02-19T02:01:28.430Z,3.72
2023-02-19T02:04:32.021Z,3.63
2023-02-19T02:07:52.475Z,3.27
2023-02-19T02:10:55.743Z,3.47
2023-02-19T02:13:58.713Z,3.10
2023-02-19T02:17:26.593Z,3.30
2023-02-19T02:20:34.991Z,3.50
2023-02-19T02:23:52.305Z,2.53
2023-02-19T02:27:12.062Z,2.45
2023-02-19T02:30:23.995Z,2.78
2023-02-19T02:33:44.517Z,2.53
2023-02-19T02:36:51.705Z,2.42
2023-02-19T02:39:55.083Z,2.60
2023-02-19T02:42:58.731Z,2.47
2023-02-19T02:47:06.062Z,2.47
2023-02-19T03:05:39.639Z,1.95
2023-02-19T03:09:09.762Z,2.50
2023-02-19T03:12:36.813Z,2.22
2023-02-19T03:16:04.655Z,2.20
2023-02-19T03:19:19.303Z,1.70
2023-02-19T03:22:33.017Z,2.10
2023-02-19T03:25:56.549Z,1.63
2023-02-19T03:29:26.203Z,1.33
2023-02-19T03:32:50.898Z,2.20
2023-02-19T03:35:58.564Z,1.57
2023-02-19T03:39:08.058Z,2.10
2023-02-19T03:42:50.774Z,3.05
2023-02-19T03:46:06.672Z,2.85
2023-02-19T03:49:40.410Z,3.38
2023-02-19T03:53:27.857Z,3.30
2023-02-19T03:56:39.023Z,2.85
2023-02-19T03:59:53.839Z,3.13
2023-02-19T04:03:14.215Z,3.08
2023-02-19T04:06:37.363Z,3.13
2023-02-19T04:09:48.864Z,3.80
2023-02-19T04:12:59.879Z,1.60
2023-02-19T04:16:07.415Z,1.40
2023-02-19T04:19:13.477Z,0.93
2023-02-19T04:22:17.283Z,1.10
2023-02-19T04:25:20.316Z,0.90
2023-02-19T04:28:22.394Z,1.13
2023-02-19T04:31:26.788Z,1.30
2023-02-19T04:34:28.751Z,1.23
2023-02-19T04:37:30.598Z,1.10
2023-02-19T04:40:35.031Z,1.10
2023-02-19T04:43:36.945Z,1.10
2023-02-19T04:46:43.059Z,1.30
2023-02-19T04:49:45.752Z,0.90
2023-02-19T04:52:47.695Z,1.25
2023-02-19T04:55:53.159Z,0.90
2023-02-19T04:58:57.898Z,1.58
2023-02-19T05:01:59.811Z,1.00
2023-02-19T05:05:01.673Z,0.90
2023-02-19T05:08:03.654Z,1.00
2023-02-19T05:11:08.272Z,0.97
2023-02-19T05:14:10.315Z,1.00
2023-02-19T05:17:12.186Z,1.08
2023-02-19T05:20:14.199Z,0.80
2023-02-19T05:23:16.115Z,1.10
2023-02-19T05:26:21.276Z,1.10
2023-02-19T05:29:23.507Z,0.88
2023-02-19T05:32:25.562Z,0.65
2023-02-19T05:35:40.874Z,1.00
2023-02-19T05:38:43.146Z,1.02
2023-02-19T05:41:45.115Z,1.20
2023-02-19T05:44:46.978Z,0.95
2023-02-19T05:47:49.174Z,1.00
2023-02-19T05:50:51.534Z,1.10
2023-02-19T05:53:53.940Z,1.05
2023-02-19T05:56:56.648Z,1.20
2023-02-19T05:59:58.569Z,0.70
2023-02-19T06:03:01.745Z,0.70
2023-02-19T06:06:03.889Z,0.82
2023-02-19T06:09:06.715Z,1.15
2023-02-19T06:12:08.639Z,0.80
2023-02-19T06:15:10.527Z,1.02
2023-02-19T06:18:12.491Z,1.08
2023-02-19T06:21:16.639Z,1.20
2023-02-19T06:24:18.706Z,0.90
2023-02-19T06:27:20.763Z,0.80
2023-02-19T06:30:22.784Z,1.00
2023-02-19T06:33:26.189Z,1.25
2023-02-19T06:36:28.039Z,1.25
2023-02-19T06:39:29.932Z,1.40
2023-02-19T06:42:33.152Z,1.30
2023-02-19T06:45:35.418Z,1.38
2023-02-19T06:48:39.339Z,1.55
2023-02-19T06:51:41.998Z,1.30
2023-02-19T06:54:44.025Z,1.00
2023-02-19T06:57:46.197Z,1.10
2023-02-19T07:00:48.530Z,1.20
2023-02-19T07:03:51.086Z,1.27
2023-02-19T07:06:53.008Z,1.40
2023-02-19T07:09:54.867Z,1.67
2023-02-19T07:12:56.815Z,1.50
2023-02-19T07:16:04.571Z,1.50
2023-02-19T07:19:07.223Z,1.88
2023-02-19T07:22:09.178Z,1.27
2023-02-19T07:25:11.141Z,1.38
2023-02-19T07:28:13.149Z,1.30
2023-02-19T07:31:17.146Z,1.50
2023-02-19T07:34:19.354Z,1.50
2023-02-19T07:37:21.454Z,1.92
2023-02-19T07:40:23.328Z,2.08
2023-02-19T07:43:27.480Z,1.60
2023-02-19T07:46:30.191Z,1.15
2023-02-19T07:49:33.232Z,1.63
2023-02-19T07:52:35.150Z,1.13
2023-02-19T07:55:37.068Z,1.10
2023-02-19T07:58:40.243Z,0.93
2023-02-19T08:02:01.055Z,1.90
2023-02-19T08:05:03.609Z,1.60
2023-02-19T08:08:09.981Z,2.20
2023-02-19T08:11:30.328Z,2.70
2023-02-19T08:14:32.711Z,2.07
2023-02-19T08:17:34.590Z,3.20
2023-02-19T08:20:37.286Z,4.22
2023-02-19T08:23:39.892Z,32.53
2023-02-19T08:26:41.835Z,25.63
2023-02-19T08:29:43.754Z,2.90
2023-02-19T08:32:45.682Z,1.35
2023-02-19T08:35:47.943Z,1.90
2023-02-19T08:38:50.002Z,9.35
2023-02-19T08:41:57.525Z,8.55
2023-02-19T08:44:59.567Z,1.70
2023-02-19T08:48:01.422Z,1.95
2023-02-19T08:51:08.331Z,1.58
2023-02-19T08:54:10.391Z,2.60
2023-02-19T08:57:12.360Z,1.88
2023-02-19T09:00:14.729Z,1.73
2023-02-19T09:03:16.788Z,1.67
2023-02-19T09:06:20.835Z,1.80
2023-02-19T09:09:22.780Z,1.20
2023-02-19T09:12:25.430Z,0.98
2023-02-19T09:15:29.592Z,0.90
2023-02-19T09:18:31.965Z,0.90
2023-02-19T09:21:33.882Z,0.90
2023-02-19T09:24:36.201Z,1.40
2023-02-19T09:27:38.101Z,1.42
2023-02-19T09:30:40.409Z,2.53
2023-02-19T09:33:43.926Z,1.70
2023-02-19T09:36:49.065Z,2.20
2023-02-19T09:39:51.019Z,1.52
2023-02-19T09:42:52.958Z,2.80
2023-02-19T09:46:03.228Z,1.80
2023-02-19T09:49:11.235Z,2.80
2023-02-19T09:52:18.912Z,2.67
2023-02-19T09:55:39.622Z,1.15
2023-02-19T09:58:50.898Z,1.60
2023-02-19T10:02:02.907Z,1.17
2023-02-19T10:05:12.846Z,2.03
2023-02-19T10:08:20.031Z,1.08
2023-02-19T10:11:25.479Z,2.53
2023-02-19T10:14:39.274Z,2.00
2023-02-19T10:17:41.181Z,1.10
2023-02-19T10:20:43.778Z,1.30
2023-02-19T10:23:49.184Z,1.58
2023-02-19T10:26:51.400Z,1.17
2023-02-19T10:29:53.338Z,1.30
2023-02-19T10:33:01.478Z,1.30
2023-02-19T10:36:21.061Z,1.27
2023-02-19T10:39:49.637Z,0.90
2023-02-19T10:43:00.974Z,1.70
2023-02-19T10:46:19.062Z,1.48
2023-02-19T10:49:32.091Z,1.03
2023-02-19T10:52:36.231Z,1.33
2023-02-19T10:55:40.790Z,1.10
2023-02-19T10:58:45.027Z,1.27
2023-02-19T11:02:19.446Z,1.40
2023-02-19T11:05:21.731Z,3.70
2023-02-19T11:08:24.495Z,3.30
2023-02-19T11:11:34.711Z,2.40
2023-02-19T11:14:36.887Z,2.40
2023-02-19T11:17:38.996Z,3.22
2023-02-19T11:20:51.357Z,2.60
2023-02-19T11:23:55.125Z,2.50
2023-02-19T11:27:16.953Z,2.53
2023-02-19T11:30:35.338Z,1.48
2023-02-19T11:33:44.627Z,2.33
2023-02-19T11:36:47.462Z,2.77
2023-02-19T11:39:51.525Z,1.77
2023-02-19T11:43:20.830Z,1.65
2023-02-19T11:46:42.803Z,1.70
2023-02-19T11:49:57.891Z,1.48
2023-02-19T11:53:16.658Z,1.90
2023-02-19T11:56:45.845Z,2.72
2023-02-19T11:59:59.819Z,1.77
2023-02-19T12:03:14.824Z,5.00
2023-02-19T12:06:23.933Z,8.43
2023-02-19T12:09:45.567Z,10.07
2023-02-19T12:13:15.210Z,3.05
2023-02-19T12:16:29.331Z,3.83
2023-02-19T12:19:39.544Z,3.72
2023-02-19T12:23:10.735Z,3.55
2023-02-19T12:26:23.933Z,3.40
2023-02-19T12:29:54.932Z,3.20
2023-02-19T12:32:57.013Z,2.88
2023-02-19T12:36:36.103Z,7.63
2023-02-19T12:39:44.194Z,2.33
2023-02-19T12:42:53.163Z,2.97
2023-02-19T12:46:03.258Z,1.98
2023-02-19T12:49:18.127Z,1.92
2023-02-19T12:52:28.330Z,1.65
2023-02-19T12:55:36.232Z,1.20
2023-02-19T12:58:45.050Z,0.80
2023-02-19T13:02:04.858Z,0.82
2023-02-19T13:05:16.094Z,1.10
2023-02-19T13:08:26.547Z,0.90
2023-02-19T13:11:37.497Z,0.80
2023-02-19T13:14:46.544Z,0.90
2023-02-19T13:17:55.983Z,0.90
2023-02-19T13:20:58.852Z,1.00
2023-02-19T13:24:07.428Z,2.55
2023-02-19T13:27:41.362Z,1.40
2023-02-19T13:31:03.974Z,1.00
2023-02-19T13:34:12.183Z,0.70
2023-02-19T13:37:16.234Z,0.75
2023-02-19T13:40:27.187Z,0.70
2023-02-19T13:43:42.888Z,0.60
2023-02-19T13:46:46.890Z,0.30
2023-02-19T13:49:49.149Z,0.50
2023-02-19T13:52:55.010Z,0.40
2023-02-19T13:55:56.974Z,0.60
2023-02-19T13:59:11.128Z,0.93
2023-02-19T14:02:23.507Z,0.67
2023-02-19T14:05:59.899Z,0.60
2023-02-19T14:09:03.292Z,0.80
2023-02-19T14:12:09.581Z,0.93
2023-02-19T14:15:43.851Z,1.25
2023-02-19T14:18:46.996Z,0.60
2023-02-19T14:21:49.670Z,0.88
2023-02-19T14:24:54.124Z,0.90
2023-02-19T14:28:15.125Z,1.77
2023-02-19T14:31:20.489Z,1.33
2023-02-19T14:34:26.413Z,0.80
2023-02-19T14:37:28.374Z,0.40
2023-02-19T14:40:39.571Z,0.40
2023-02-19T14:43:48.667Z,0.82
2023-02-19T14:46:58.570Z,0.73
2023-02-19T14:50:09.629Z,0.70
2023-02-19T14:53:16.582Z,0.45
2023-02-19T14:56:26.077Z,0.40
2023-02-19T14:59:29.940Z,1.02
2023-02-19T15:02:32.915Z,0.52
2023-02-19T15:05:36.813Z,0.60
2023-02-19T15:08:45.239Z,0.60
2023-02-19T15:11:48.429Z,5.97
2023-02-19T15:14:54.885Z,1.20
2023-02-19T15:18:00.463Z,1.00
2023-02-19T15:21:05.694Z,0.80
2023-02-19T15:24:07.990Z,1.17
2023-02-19T15:27:18.937Z,1.30
2023-02-19T15:30:28.396Z,0.75
2023-02-19T15:33:30.752Z,0.55
2023-02-19T15:36:35.132Z,0.80
2023-02-19T15:39:44.015Z,1.40
2023-02-19T15:42:47.845Z,2.40
2023-02-19T15:45:59.807Z,1.67
2023-02-19T15:49:31.089Z,1.40
2023-02-19T15:52:55.047Z,1.03
2023-02-19T15:56:04.929Z,1.75
2023-02-19T15:59:21.398Z,1.45
2023-02-19T16:02:23.767Z,3.40
2023-02-19T16:05:27.913Z,2.42
2023-02-19T16:08:35.251Z,0.73
2023-02-19T16:12:20.336Z,0.75
2023-02-19T16:15:23.129Z,1.85
2023-02-19T16:18:25.106Z,3.38
2023-02-19T16:21:28.320Z,4.90
2023-02-19T16:24:34.589Z,5.67
2023-02-19T16:27:40.162Z,12.70
2023-02-19T16:30:42.956Z,12.95
2023-02-19T16:33:48.472Z,8.43
2023-02-19T16:36:50.604Z,6.70
2023-02-19T16:40:24.120Z,3.00
2023-02-19T16:43:43.584Z,2.80
2023-02-19T16:46:46.063Z,4.15
2023-02-19T16:49:48.223Z,3.60
2023-02-19T16:53:02.071Z,4.82
2023-02-19T16:56:04.438Z,1.27
2023-02-19T16:59:07.643Z,1.10
2023-02-19T17:02:17.785Z,1.30
2023-02-19T17:05:21.401Z,6.80
2023-02-19T17:08:44.231Z,2.05
2023-02-19T17:11:47.869Z,3.00
2023-02-19T17:14:50.876Z,2.42
2023-02-19T17:17:54.235Z,3.10
2023-02-19T17:21:01.539Z,3.25
2023-02-19T17:24:04.422Z,3.17
2023-02-19T17:27:10.814Z,3.50
2023-02-19T17:30:33.921Z,4.03
2023-02-19T17:33:36.413Z,4.63
2023-02-19T17:36:40.491Z,4.70
2023-02-19T17:39:42.605Z,2.40
2023-02-19T17:42:44.795Z,2.00
2023-02-19T17:45:46.915Z,2.45
2023-02-19T17:48:49.635Z,3.33
2023-02-19T17:51:51.880Z,1.75
2023-02-19T17:54:53.798Z,2.47
2023-02-19T17:57:56.456Z,1.93
2023-02-19T18:00:58.728Z,2.75
2023-02-19T18:04:00.910Z,2.42
2023-02-19T18:07:03.211Z,2.00
2023-02-19T18:10:07.479Z,2.45
2023-02-19T18:13:12.086Z,4.20
2023-02-19T18:16:15.719Z,4.10
2023-02-19T18:19:18.064Z,5.30
2023-02-19T18:22:20.888Z,6.68
2023-02-19T18:25:23.533Z,3.30
2023-02-19T18:28:25.700Z,3.13
2023-02-19T18:31:27.929Z,3.33
2023-02-19T18:34:31.584Z,3.47
2023-02-19T18:37:34.030Z,2.80
2023-02-19T18:40:36.791Z,3.47
2023-02-19T18:43:40.051Z,2.87
2023-02-19T18:46:42.234Z,3.28
2023-02-19T18:49:49.030Z,1.77
2023-02-19T18:52:51.763Z,1.58
2023-02-19T18:55:55.031Z,1.73
2023-02-19T18:59:00.023Z,2.73
2023-02-19T19:02:05.076Z,2.58
2023-02-19T19:05:07.189Z,1.45
2023-02-19T19:08:09.606Z,2.58
2023-02-19T19:11:12.101Z,2.53
2023-02-19T19:14:14.491Z,2.70
2023-02-19T19:17:16.724Z,2.20
2023-02-19T19:20:21.330Z,2.58
2023-02-19T19:23:23.500Z,2.60
2023-02-19T19:26:25.705Z,2.63
2023-02-19T19:29:28.094Z,1.87
2023-02-19T19:32:30.100Z,2.97
2023-02-19T19:35:32.262Z,2.53
2023-02-19T19:38:35.207Z,2.50
2023-02-19T19:41:37.481Z,3.40
2023-02-19T19:44:39.676Z,2.80
2023-02-19T19:47:41.957Z,2.65
2023-02-19T19:50:44.227Z,3.05
2023-02-19T19:53:48.010Z,2.83
2023-02-19T19:56:50.957Z,3.10
2023-02-19T19:59:52.914Z,2.77
2023-02-19T20:02:55.025Z,2.35
2023-02-19T20:05:57.490Z,3.33
2023-02-19T20:09:00.330Z,3.03
2023-02-19T20:12:03.208Z,3.17
2023-02-19T20:15:05.268Z,2.73
2023-02-19T20:18:07.403Z,2.55
2023-02-19T20:21:11.009Z,2.88
2023-02-19T20:24:18.846Z,3.03
2023-02-19T20:27:22.675Z,3.50
2023-02-19T20:30:25.281Z,3.30
2023-02-19T20:33:27.413Z,2.97
2023-02-19T20:36:29.566Z,2.97
2023-02-19T20:39:31.935Z,2.97
2023-02-19T20:42:34.140Z,3.40
2023-02-19T20:45:45.911Z,3.00
2023-02-19T20:48:49.447Z,2.90
2023-02-19T20:51:55.427Z,3.00
2023-02-19T20:54:58.419Z,3.25
2023-02-19T20:58:00.591Z,2.28
2023-02-19T21:01:02.835Z,3.30
2023-02-19T21:04:05.237Z,2.33
2023-02-19T21:07:07.449Z,3.25
2023-02-19T21:10:10.100Z,2.42
2023-02-19T21:13:13.418Z,4.78
2023-02-19T21:16:16.067Z,3.83
2023-02-19T21:19:18.246Z,6.93
2023-02-19T21:22:20.316Z,5.03
2023-02-19T21:25:22.263Z,2.17
2023-02-19T21:28:24.874Z,4.13
2023-02-19T21:31:40.184Z,3.47
2023-02-19T21:34:42.483Z,4.10
2023-02-19T21:37:44.511Z,3.38
2023-02-19T21:40:49.438Z,3.90
2023-02-19T21:43:51.548Z,3.40
2023-02-19T21:46:53.572Z,5.33
2023-02-19T21:49:55.489Z,3.80
2023-02-19T21:52:57.341Z,3.50
2023-02-19T21:55:59.540Z,3.63
2023-02-19T21:59:01.676Z,4.85
2023-02-19T22:02:03.540Z,3.20
2023-02-19T22:05:05.862Z,2.28
2023-02-19T22:08:07.924Z,2.97
2023-02-19T22:11:09.901Z,3.58
2023-02-19T22:14:11.753Z,3.30
2023-02-19T22:17:13.697Z,3.27
2023-02-19T22:20:17.344Z,3.30
2023-02-19T22:23:19.550Z,3.25
2023-02-19T22:26:24.455Z,3.17
2023-02-19T22:29:26.515Z,2.83
2023-02-19T22:32:28.477Z,2.77
2023-02-19T22:35:30.470Z,3.50
2023-02-19T22:38:32.555Z,2.65
2023-02-19T22:41:34.603Z,2.30
2023-02-19T22:44:36.589Z,2.80
2023-02-19T22:47:40.027Z,3.20
2023-02-19T22:50:42.273Z,3.45
2023-02-19T22:53:48.043Z,3.42
2023-02-19T22:56:49.872Z,2.95
2023-02-19T22:59:51.811Z,3.78
2023-02-19T23:02:53.903Z,4.63
2023-02-19T23:05:55.818Z,3.97
2023-02-19T23:09:02.430Z,3.47
2023-02-19T23:12:07.045Z,5.18
2023-02-19T23:15:10.809Z,4.57
2023-02-19T23:18:12.688Z,4.93
2023-02-19T23:21:15.700Z,3.40
2023-02-19T23:24:17.778Z,3.80
2023-02-19T23:27:20.123Z,4.10
2023-02-19T23:30:22.910Z,4.28
2023-02-19T23:33:25.140Z,4.07
2023-02-19T23:36:27.418Z,3.50
2023-02-19T23:39:29.404Z,3.83
2023-02-19T23:42:31.954Z,4.43
2023-02-19T23:45:34.221Z,3.92
2023-02-19T23:48:36.140Z,3.90
2023-02-19T23:51:38.182Z,3.30
2023-02-19T23:54:40.629Z,4.05
2023-02-19T23:57:42.626Z,3.78
